Time;durP1;ratioP1;P1;durP2;ratioP2;P2;SDS_P1;SDS_P2;PMS_P1;PMS_P2;Temp;Humidity;BMP_temperature;BMP_pressure;BME280_temperature;BME280_humidity;BME280_pressure;Samples;Min_cycle;Max_cycle;Signal;HPM_P1;HPM_P2
2021/06/08 00:01:54;;;;;;;32.80;15.10;;;;;;;;;;5004056;28;20042;-59
2021/06/08 00:04:21;;;;;;;28.85;14.60;;;;;;;;;;4998942;28;20049;-59
2021/06/08 00:06:50;;;;;;;27.45;13.88;;;;;;;;;;5002202;28;20508;-60
2021/06/08 00:09:17;;;;;;;45.33;15.93;;;;;;;;;;4998474;28;20052;-59
2021/06/08 00:11:44;;;;;;;28.35;16.05;;;;;;;;;;4998363;28;20042;-60
2021/06/08 00:14:11;;;;;;;46.33;15.85;;;;;;;;;;5004922;28;20812;-60
2021/06/08 00:16:38;;;;;;;31.23;14.48;;;;;;;;;;5007742;28;20532;-60
2021/06/08 00:19:04;;;;;;;32.00;13.82;;;;;;;;;;5003377;28;20034;-59
2021/06/08 00:21:31;;;;;;;29.77;13.45;;;;;;;;;;5003550;28;20042;-59
2021/06/08 00:23:58;;;;;;;26.30;12.60;;;;;;;;;;5003715;28;20038;-59
2021/06/08 00:26:24;;;;;;;30.80;13.48;;;;;;;;;;5004902;28;20038;-59
2021/06/08 00:28:51;;;;;;;29.80;13.32;;;;;;;;;;5005490;28;20061;-59
2021/06/08 00:31:18;;;;;;;29.63;13.73;;;;;;;;;;5002641;28;20041;-59
2021/06/08 00:33:46;;;;;;;24.13;13.95;;;;;;;;;;5002626;28;20060;-59
2021/06/08 00:36:14;;;;;;;30.33;14.45;;;;;;;;;;5010640;28;20160;-60
2021/06/08 00:38:41;;;;;;;32.72;14.35;;;;;;;;;;5007476;28;20038;-59
2021/06/08 00:41:08;;;;;;;34.20;15.48;;;;;;;;;;5004173;28;20033;-59
2021/06/08 00:43:35;;;;;;;29.30;14.23;;;;;;;;;;5003749;28;20049;-59
2021/06/08 00:46:01;;;;;;;29.95;13.60;;;;;;;;;;5002204;28;20037;-60
2021/06/08 00:48:29;;;;;;;32.70;14.20;;;;;;;;;;5004078;28;20084;-59
2021/06/08 00:50:56;;;;;;;31.00;14.07;;;;;;;;;;5000851;28;20129;-59
2021/06/08 00:53:23;;;;;;;32.88;14.63;;;;;;;;;;5002799;28;20371;-59
2021/06/08 00:55:50;;;;;;;28.88;14.23;;;;;;;;;;4998736;28;20052;-59
2021/06/08 00:58:17;;;;;;;32.10;14.95;;;;;;;;;;5002756;28;20050;-59
2021/06/08 01:00:44;;;;;;;36.87;15.03;;;;;;;;;;4996496;28;20489;-59
2021/06/08 01:03:11;;;;;;;36.22;15.52;;;;;;;;;;5002416;28;20034;-59
2021/06/08 01:05:38;;;;;;;33.85;14.35;;;;;;;;;;5002640;28;20490;-59
2021/06/08 01:08:05;;;;;;;41.03;15.95;;;;;;;;;;5005331;28;20062;-60
2021/06/08 01:10:32;;;;;;;26.75;15.60;;;;;;;;;;5000017;28;20081;-60
2021/06/08 01:13:00;;;;;;;32.95;15.35;;;;;;;;;;5001850;28;20066;-59
2021/06/08 01:15:27;;;;;;;31.50;15.47;;;;;;;;;;5004289;28;20042;-59
2021/06/08 01:17:53;;;;;;;33.53;14.80;;;;;;;;;;5005685;28;20576;-59
2021/06/08 01:20:20;;;;;;;30.98;15.48;;;;;;;;;;5002933;28;20585;-59
2021/06/08 01:22:47;;;;;;;33.80;13.90;;;;;;;;;;5001836;28;20125;-59
2021/06/08 01:25:14;;;;;;;29.05;13.70;;;;;;;;;;4998362;28;20053;-59
2021/06/08 01:27:41;;;;;;;33.53;13.25;;;;;;;;;;4997068;28;20069;-60
2021/06/08 01:30:09;;;;;;;31.27;15.02;;;;;;;;;;5009546;28;20125;-59
2021/06/08 01:32:38;;;;;;;36.72;14.73;;;;;;;;;;5004120;28;20051;-59
2021/06/08 01:35:06;;;;;;;31.25;13.52;;;;;;;;;;5003962;28;20053;-59
2021/06/08 01:37:33;;;;;;;32.97;13.27;;;;;;;;;;5004968;28;20058;-59
2021/06/08 01:40:00;;;;;;;31.20;12.77;;;;;;;;;;4998547;28;20042;-60
2021/06/08 01:42:28;;;;;;;23.42;12.52;;;;;;;;;;4998102;28;20088;-59
2021/06/08 01:44:55;;;;;;;28.90;12.45;;;;;;;;;;5001250;28;20095;-59
2021/06/08 01:47:22;;;;;;;25.17;12.80;;;;;;;;;;5001651;28;20521;-59
2021/06/08 01:49:49;;;;;;;27.60;12.80;;;;;;;;;;5003327;28;20052;-59
2021/06/08 01:52:36;;;;;;;31.83;13.43;;;;;;;;;;5002944;28;20499;-59
2021/06/08 01:55:09;;;;;;;33.10;13.27;;;;;;;;;;4981338;28;20120;-59
2021/06/08 01:57:52;;;;;;;28.17;13.05;;;;;;;;;;4999477;28;20054;-59
2021/06/08 02:00:42;;;;;;;29.67;12.65;;;;;;;;;;5004356;28;20073;-59
2021/06/08 02:03:19;;;;;;;28.27;13.52;;;;;;;;;;4999719;28;20124;-59
2021/06/08 02:06:01;;;;;;;22.23;12.68;;;;;;;;;;5003927;28;20084;-59
2021/06/08 02:08:31;;;;;;;27.75;12.98;;;;;;;;;;5005139;28;20037;-59
2021/06/08 02:11:01;;;;;;;28.90;13.68;;;;;;;;;;5003719;28;20049;-59
2021/06/08 02:13:36;;;;;;;21.85;11.77;;;;;;;;;;5004796;28;20034;-59
2021/06/08 02:16:22;;;;;;;25.45;13.27;;;;;;;;;;5002984;28;20037;-59
2021/06/08 02:18:50;;;;;;;31.15;13.48;;;;;;;;;;5006103;28;20096;-59
2021/06/08 02:21:24;;;;;;;30.25;13.40;;;;;;;;;;5003270;28;20045;-59
2021/06/08 02:23:52;;;;;;;29.30;13.13;;;;;;;;;;5015574;28;20421;-59
2021/06/08 02:26:22;;;;;;;28.10;13.10;;;;;;;;;;4999067;28;20046;-59
2021/06/08 02:28:49;;;;;;;33.58;13.40;;;;;;;;;;5007120;28;20089;-59
2021/06/08 02:31:17;;;;;;;33.20;14.37;;;;;;;;;;5001016;28;20047;-59
2021/06/08 02:33:46;;;;;;;24.70;13.05;;;;;;;;;;4998087;28;20070;-59
2021/06/08 02:36:13;;;;;;;26.08;12.25;;;;;;;;;;5004079;28;20050;-59
2021/06/08 02:38:40;;;;;;;24.75;13.60;;;;;;;;;;5005281;28;20046;-59
2021/06/08 02:41:08;;;;;;;23.17;12.10;;;;;;;;;;5000101;28;20047;-59
2021/06/08 02:43:35;;;;;;;24.52;11.55;;;;;;;;;;5005757;28;20485;-59
2021/06/08 02:46:03;;;;;;;30.65;13.00;;;;;;;;;;5000916;28;20047;-60
2021/06/08 02:48:31;;;;;;;22.95;12.40;;;;;;;;;;5001339;28;20046;-59
2021/06/08 02:50:58;;;;;;;32.10;12.30;;;;;;;;;;5005594;28;20041;-59
2021/06/08 02:53:25;;;;;;;26.77;12.40;;;;;;;;;;5002718;28;20082;-59
2021/06/08 02:55:53;;;;;;;32.05;13.18;;;;;;;;;;5009191;28;20044;-59
2021/06/08 02:58:21;;;;;;;31.33;11.80;;;;;;;;;;5005474;28;20556;-59
2021/06/08 03:00:48;;;;;;;24.98;12.35;;;;;;;;;;5005649;28;20058;-59
2021/06/08 03:03:16;;;;;;;30.63;12.48;;;;;;;;;;5004472;28;20041;-59
2021/06/08 03:06:03;;;;;;;25.60;11.57;;;;;;;;;;5004774;28;20054;-59
2021/06/08 03:08:30;;;;;;;24.90;11.88;;;;;;;;;;4998721;28;20042;-59
2021/06/08 03:10:58;;;;;;;24.52;11.82;;;;;;;;;;5007535;28;20037;-58
2021/06/08 03:13:25;;;;;;;30.33;12.35;;;;;;;;;;5008398;28;20051;-61
2021/06/08 03:15:55;;;;;;;29.05;12.18;;;;;;;;;;5007411;28;20076;-59
2021/06/08 03:18:24;;;;;;;29.48;11.57;;;;;;;;;;5001033;28;20061;-59
2021/06/08 03:21:07;;;;;;;26.95;11.20;;;;;;;;;;5004141;28;20045;-59
2021/06/08 03:23:41;;;;;;;18.70;11.05;;;;;;;;;;5005455;28;20049;-59
2021/06/08 03:26:09;;;;;;;30.50;12.20;;;;;;;;;;5005020;28;20104;-59
2021/06/08 03:28:37;;;;;;;25.65;11.50;;;;;;;;;;4998890;28;20042;-59
2021/06/08 03:31:03;;;;;;;;;;;;;;;;;;5007295;28;20097;-59
2021/06/08 03:33:31;;;;;;;29.77;12.35;;;;;;;;;;5005279;28;19926;-59
2021/06/08 03:35:57;;;;;;;;;;;;;;;;;;5004799;28;20061;-59
2021/06/08 03:38:25;;;;;;;26.48;11.35;;;;;;;;;;5000536;28;19928;-59
2021/06/08 03:40:52;;;;;;;;;;;;;;;;;;5000435;28;20551;-60
2021/06/08 03:43:20;;;;;;;24.63;11.70;;;;;;;;;;5000841;28;19925;-59
2021/06/08 03:45:47;;;;;;;19.58;10.90;;;;;;;;;;5003412;28;20117;-59
2021/06/08 03:48:15;;;;;;;21.73;10.60;;;;;;;;;;5003417;28;20142;-60
2021/06/08 03:50:45;;;;;;;25.42;11.60;;;;;;;;;;5004991;28;20088;-59
2021/06/08 03:53:12;;;;;;;26.67;11.75;;;;;;;;;;5001564;28;20042;-59
2021/06/08 03:55:38;;;;;;;22.50;11.27;;;;;;;;;;5005778;28;20120;-59
2021/06/08 03:58:13;;;;;;;27.77;12.20;;;;;;;;;;4999593;28;20557;-59
2021/06/08 04:00:40;;;;;;;26.02;10.40;;;;;;;;;;5003662;28;20080;-59
2021/06/08 04:03:09;;;;;;;17.00;10.50;;;;;;;;;;5008186;28;20053;-59
2021/06/08 04:05:36;;;;;;;21.77;11.07;;;;;;;;;;5008401;28;20042;-59
2021/06/08 04:08:04;;;;;;;24.05;10.73;;;;;;;;;;5005210;28;20037;-59
2021/06/08 04:10:31;;;;;;;14.55;10.10;;;;;;;;;;5009227;28;20057;-59
2021/06/08 04:12:58;;;;;;;23.25;10.25;;;;;;;;;;5007703;28;20061;-59
2021/06/08 04:15:25;;;;;;;20.27;10.30;;;;;;;;;;5004506;28;20073;-59
2021/06/08 04:17:52;;;;;;;24.50;11.82;;;;;;;;;;5008568;28;20033;-59
2021/06/08 04:20:22;;;;;;;17.27;10.35;;;;;;;;;;5003439;28;20042;-60
2021/06/08 04:22:54;;;;;;;18.13;10.13;;;;;;;;;;5000101;28;20054;-59
2021/06/08 04:25:21;;;;;;;20.13;9.95;;;;;;;;;;5000402;28;20069;-60
2021/06/08 04:27:47;;;;;;;21.85;9.73;;;;;;;;;;5002681;28;20030;-59
2021/06/08 04:30:15;;;;;;;17.40;10.52;;;;;;;;;;5006796;28;20045;-60
2021/06/08 04:32:43;;;;;;;20.83;10.13;;;;;;;;;;5003230;28;20077;-59
2021/06/08 04:35:10;;;;;;;20.00;10.23;;;;;;;;;;5000985;28;20506;-59
2021/06/08 04:37:37;;;;;;;21.50;9.90;;;;;;;;;;5003271;28;20061;-59
2021/06/08 04:40:04;;;;;;;16.63;9.32;;;;;;;;;;5005843;28;20077;-59
2021/06/08 04:42:31;;;;;;;18.80;9.82;;;;;;;;;;5015330;28;20056;-59
2021/06/08 04:44:58;;;;;;;20.80;10.23;;;;;;;;;;5002477;28;20088;-59
2021/06/08 04:47:24;;;;;;;20.33;10.40;;;;;;;;;;5004501;28;20307;-59
2021/06/08 04:49:53;;;;;;;23.38;10.10;;;;;;;;;;5004692;28;20053;-59
2021/06/08 04:52:19;;;;;;;23.60;9.25;;;;;;;;;;5007784;28;20050;-59
2021/06/08 04:54:46;;;;;;;22.37;10.17;;;;;;;;;;5008447;28;20046;-59
2021/06/08 04:57:14;;;;;;;20.05;10.75;;;;;;;;;;5006731;28;20651;-59
2021/06/08 04:59:59;;;;;;;21.90;9.90;;;;;;;;;;4999349;28;20498;-59
2021/06/08 05:02:37;;;;;;;20.20;9.40;;;;;;;;;;5002876;28;20150;-59
2021/06/08 05:05:06;;;;;;;20.23;8.90;;;;;;;;;;5001630;28;20096;-59
2021/06/08 05:07:40;;;;;;;21.17;9.20;;;;;;;;;;5003727;28;20038;-59
2021/06/08 05:10:10;;;;;;;21.85;8.75;;;;;;;;;;5003402;28;20066;-59
2021/06/08 05:12:40;;;;;;;20.98;9.07;;;;;;;;;;5000691;28;20101;-60
2021/06/08 05:15:07;;;;;;;15.77;8.85;;;;;;;;;;5000732;28;20037;-59
2021/06/08 05:17:35;;;;;;;18.25;8.65;;;;;;;;;;5000262;28;20496;-60
2021/06/08 05:20:01;;;;;;;;;;;;;;;;;;5005147;28;20048;-59
2021/06/08 05:22:28;;;;;;;19.88;8.40;;;;;;;;;;5002444;28;20385;-59
2021/06/08 05:24:56;;;;;;;16.97;8.60;;;;;;;;;;5003627;28;20045;-59
2021/06/08 05:27:23;;;;;;;18.05;7.97;;;;;;;;;;4999018;28;20289;-59
2021/06/08 05:29:54;;;;;;;19.60;8.60;;;;;;;;;;5006384;28;20049;-59
2021/06/08 05:32:21;;;;;;;16.52;8.45;;;;;;;;;;4994035;28;20101;-59
2021/06/08 05:34:47;;;;;;;20.48;7.90;;;;;;;;;;5005336;28;20510;-59
2021/06/08 05:37:15;;;;;;;19.67;7.93;;;;;;;;;;5001010;28;20050;-59
2021/06/08 05:39:43;;;;;;;17.73;7.75;;;;;;;;;;5004449;28;20038;-59
2021/06/08 05:42:09;;;;;;;;;;;;;;;;;;5003227;28;20049;-59
2021/06/08 05:44:36;;;;;;;22.40;7.82;;;;;;;;;;5008347;28;19926;-59
2021/06/08 05:47:08;;;;;;;19.20;8.10;;;;;;;;;;5004380;28;20049;-59
2021/06/08 05:49:37;;;;;;;12.93;8.10;;;;;;;;;;5008595;28;20096;-59
2021/06/08 05:52:07;;;;;;;18.60;8.07;;;;;;;;;;5007931;28;20045;-60
2021/06/08 05:54:34;;;;;;;15.18;8.48;;;;;;;;;;5006221;28;20070;-60
2021/06/08 05:57:02;;;;;;;21.27;7.53;;;;;;;;;;5007630;28;20052;-59
2021/06/08 05:59:29;;;;;;;13.88;8.23;;;;;;;;;;5003539;28;20104;-59
2021/06/08 06:01:55;;;;;;;14.27;7.85;;;;;;;;;;5003320;28;20048;-60
2021/06/08 06:04:24;;;;;;;22.73;8.17;;;;;;;;;;5005783;28;20539;-59
2021/06/08 06:06:52;;;;;;;12.57;8.07;;;;;;;;;;5003260;28;20521;-59
2021/06/08 06:09:23;;;;;;;;;;;;;;;;;;5001711;28;20129;-59
2021/06/08 06:11:51;;;;;;;15.63;7.18;;;;;;;;;;5006448;28;20310;-59
2021/06/08 06:14:22;;;;;;;22.98;7.50;;;;;;;;;;5002390;28;20034;-60
2021/06/08 06:16:51;;;;;;;12.38;7.20;;;;;;;;;;5007901;28;20491;-59
2021/06/08 06:19:18;;;;;;;15.20;7.07;;;;;;;;;;5004443;28;20096;-60
2021/06/08 06:21:46;;;;;;;17.02;7.78;;;;;;;;;;5002235;28;20057;-60
2021/06/08 06:24:13;;;;;;;14.80;7.55;;;;;;;;;;5003721;28;20478;-60
2021/06/08 06:26:43;;;;;;;14.68;7.32;;;;;;;;;;5007700;28;20045;-59
2021/06/08 06:29:12;;;;;;;17.13;7.80;;;;;;;;;;5006016;28;20117;-60
2021/06/08 06:31:46;;;;;;;13.60;6.75;;;;;;;;;;5006592;28;20248;-60
2021/06/08 06:34:16;;;;;;;13.38;7.10;;;;;;;;;;5002547;28;20152;-59
2021/06/08 06:36:45;;;;;;;14.40;7.28;;;;;;;;;;5003222;28;20113;-60
2021/06/08 06:39:21;;;;;;;13.32;6.65;;;;;;;;;;5006128;28;20038;-59
2021/06/08 06:41:49;;;;;;;15.27;6.75;;;;;;;;;;5006099;28;20049;-60
2021/06/08 06:44:19;;;;;;;13.68;7.10;;;;;;;;;;5000281;28;20053;-60
2021/06/08 06:46:47;;;;;;;18.67;6.72;;;;;;;;;;5003921;28;20124;-59
2021/06/08 06:49:15;;;;;;;16.70;7.35;;;;;;;;;;4999749;28;20051;-60
2021/06/08 06:51:44;;;;;;;13.20;6.90;;;;;;;;;;5001762;28;20050;-60
2021/06/08 06:54:10;;;;;;;12.35;6.35;;;;;;;;;;5001416;28;20034;-59
2021/06/08 06:56:43;;;;;;;15.93;6.47;;;;;;;;;;5002484;28;20046;-59
2021/06/08 06:59:09;;;;;;;15.48;7.20;;;;;;;;;;5005012;28;20061;-59
2021/06/08 07:01:40;;;;;;;17.13;6.80;;;;;;;;;;5004919;28;20514;-60
2021/06/08 07:04:10;;;;;;;12.45;6.70;;;;;;;;;;5002241;28;20502;-60
2021/06/08 07:06:37;;;;;;;11.75;6.85;;;;;;;;;;5006541;28;20042;-60
2021/06/08 07:09:03;;;;;;;12.27;6.35;;;;;;;;;;5008524;28;20084;-59
2021/06/08 07:11:31;;;;;;;15.18;6.95;;;;;;;;;;5000130;28;20620;-60
2021/06/08 07:13:58;;;;;;;13.77;7.03;;;;;;;;;;5001991;28;20049;-60
2021/06/08 07:16:26;;;;;;;15.25;6.72;;;;;;;;;;5004701;28;20052;-59
2021/06/08 07:18:53;;;;;;;12.25;6.75;;;;;;;;;;5003175;28;20041;-60
2021/06/08 07:21:21;;;;;;;10.63;6.03;;;;;;;;;;5002561;28;20029;-60
2021/06/08 07:23:50;;;;;;;14.30;6.20;;;;;;;;;;5000229;28;20125;-60
2021/06/08 07:26:18;;;;;;;11.07;6.18;;;;;;;;;;5002576;28;20038;-59
2021/06/08 07:28:45;;;;;;;14.77;6.63;;;;;;;;;;5001462;28;20074;-60
2021/06/08 07:31:16;;;;;;;14.48;6.03;;;;;;;;;;5006244;28;20681;-60
2021/06/08 07:34:04;;;;;;;11.35;6.05;;;;;;;;;;5001171;28;20062;-59
2021/06/08 07:36:47;;;;;;;14.55;5.63;;;;;;;;;;4999412;28;20458;-60
2021/06/08 07:39:28;;;;;;;10.80;5.70;;;;;;;;;;5003432;28;20045;-59
2021/06/08 07:42:05;;;;;;;11.88;5.82;;;;;;;;;;5006112;28;20034;-59
2021/06/08 07:44:34;;;;;;;10.85;5.68;;;;;;;;;;5002752;28;20042;-59
2021/06/08 07:47:02;;;;;;;10.43;6.05;;;;;;;;;;5006220;28;20135;-60
2021/06/08 07:49:29;;;;;;;11.43;6.18;;;;;;;;;;5003873;28;20042;-60
2021/06/08 07:51:56;;;;;;;10.50;5.88;;;;;;;;;;5000958;28;20046;-60
2021/06/08 07:54:23;;;;;;;;;;;;;;;;;;5002848;28;20050;-60
2021/06/08 07:56:51;;;;;;;13.13;6.25;;;;;;;;;;5004277;28;19928;-60
2021/06/08 07:59:19;;;;;;;17.45;6.32;;;;;;;;;;5006746;28;20050;-59
2021/06/08 08:01:45;;;;;;;11.52;6.03;;;;;;;;;;5003217;28;20136;-60
2021/06/08 08:04:18;;;;;;;10.35;5.15;;;;;;;;;;5003910;28;20046;-60
2021/06/08 08:06:50;;;;;;;10.85;5.25;;;;;;;;;;5000862;28;20101;-60
2021/06/08 08:09:17;;;;;;;9.48;5.25;;;;;;;;;;4999229;28;20086;-59
2021/06/08 08:11:50;;;;;;;14.30;5.45;;;;;;;;;;5008106;28;20045;-59
2021/06/08 08:14:17;;;;;;;10.52;5.00;;;;;;;;;;5002243;28;20573;-59
2021/06/08 08:16:46;;;;;;;8.80;5.63;;;;;;;;;;5003275;28;20038;-60
2021/06/08 08:19:14;;;;;;;8.55;4.95;;;;;;;;;;5008887;28;20457;-60
2021/06/08 08:21:42;;;;;;;10.23;5.35;;;;;;;;;;4999580;28;20051;-60
2021/06/08 08:24:08;;;;;;;8.25;5.03;;;;;;;;;;4999474;28;20069;-60
2021/06/08 08:26:35;;;;;;;9.40;5.37;;;;;;;;;;5003959;28;20046;-60
2021/06/08 08:29:04;;;;;;;9.18;5.10;;;;;;;;;;4997824;28;20062;-59
2021/06/08 08:31:34;;;;;;;15.43;5.32;;;;;;;;;;5001945;28;20146;-60
2021/06/08 08:34:01;;;;;;;11.75;5.18;;;;;;;;;;5006855;28;20116;-60
2021/06/08 08:36:29;;;;;;;10.70;5.07;;;;;;;;;;5001654;28;20046;-60
2021/06/08 08:38:56;;;;;;;8.20;4.95;;;;;;;;;;5000962;28;20297;-60
2021/06/08 08:41:39;;;;;;;8.07;4.13;;;;;;;;;;4995501;28;20054;-60
2021/06/08 08:44:08;;;;;;;;;;;;;;;;;;5003422;28;20046;-59
2021/06/08 08:46:36;;;;;;;7.07;4.95;;;;;;;;;;5001785;28;19947;-60
2021/06/08 08:49:03;;;;;;;12.50;4.72;;;;;;;;;;5001852;28;20469;-59
2021/06/08 08:51:31;;;;;;;7.95;4.97;;;;;;;;;;5001541;28;20050;-59
2021/06/08 08:53:59;;;;;;;10.07;4.85;;;;;;;;;;5002648;28;20046;-60
2021/06/08 08:56:27;;;;;;;11.05;4.70;;;;;;;;;;5001547;28;20514;-60
2021/06/08 08:58:54;;;;;;;10.50;4.93;;;;;;;;;;4996419;28;20046;-60
2021/06/08 09:01:21;;;;;;;7.83;4.33;;;;;;;;;;5002298;28;20041;-60
2021/06/08 09:03:48;;;;;;;9.43;4.72;;;;;;;;;;4999338;28;20301;-60
2021/06/08 09:06:16;;;;;;;6.72;4.43;;;;;;;;;;5006774;28;20181;-60
2021/06/08 09:08:43;;;;;;;7.32;4.18;;;;;;;;;;4998226;28;20049;-59
2021/06/08 09:11:11;;;;;;;8.17;5.13;;;;;;;;;;5000563;28;20084;-59
2021/06/08 09:13:40;;;;;;;10.93;4.50;;;;;;;;;;5003819;28;20061;-60
2021/06/08 09:16:08;;;;;;;12.20;4.82;;;;;;;;;;4999112;28;20052;-59
2021/06/08 09:18:35;;;;;;;10.93;4.72;;;;;;;;;;5001930;28;20057;-59
2021/06/08 09:21:23;;;;;;;14.45;4.78;;;;;;;;;;5008545;28;20052;-60
2021/06/08 09:23:52;;;;;;;13.48;4.65;;;;;;;;;;5006379;28;20121;-59
2021/06/08 09:26:18;;;;;;;10.50;4.80;;;;;;;;;;5003933;28;20046;-59
2021/06/08 09:28:47;;;;;;;11.32;4.97;;;;;;;;;;5000963;28;20077;-59
2021/06/08 09:31:21;;;;;;;7.43;4.32;;;;;;;;;;5009136;28;20093;-60
2021/06/08 09:33:48;;;;;;;12.18;4.55;;;;;;;;;;5002656;28;20137;-60
2021/06/08 09:36:16;;;;;;;9.90;4.10;;;;;;;;;;5008525;28;20041;-60
2021/06/08 09:38:47;;;;;;;8.93;4.45;;;;;;;;;;5004176;28;20046;-59
2021/06/08 09:41:15;;;;;;;7.38;4.35;;;;;;;;;;5004647;28;20058;-59
2021/06/08 09:43:49;;;;;;;8.43;4.20;;;;;;;;;;5003276;28;20482;-60
2021/06/08 09:46:16;;;;;;;8.95;4.75;;;;;;;;;;5005057;28;20088;-59
2021/06/08 09:48:54;;;;;;;9.70;3.85;;;;;;;;;;5009414;28;20046;-60
2021/06/08 09:51:21;;;;;;;;;;;;;;;;;;5004016;28;20105;-59
2021/06/08 09:53:48;;;;;;;9.70;3.95;;;;;;;;;;5005928;28;19928;-60
2021/06/08 09:56:15;;;;;;;6.63;4.03;;;;;;;;;;5008051;28;20545;-60
2021/06/08 09:58:46;;;;;;;7.20;4.05;;;;;;;;;;5003221;28;20077;-59
2021/06/08 10:01:12;;;;;;;7.03;4.20;;;;;;;;;;5000376;28;20166;-60
2021/06/08 10:03:40;;;;;;;10.93;4.43;;;;;;;;;;4998138;28;20077;-59
2021/06/08 10:06:08;;;;;;;6.10;3.85;;;;;;;;;;5000791;28;20121;-59
2021/06/08 10:08:39;;;;;;;8.80;4.20;;;;;;;;;;4997276;28;20042;-60
2021/06/08 10:11:21;;;;;;;7.07;3.70;;;;;;;;;;4998548;28;20173;-60
2021/06/08 10:13:50;;;;;;;8.07;4.15;;;;;;;;;;5007368;28;20473;-59
2021/06/08 10:16:24;;;;;;;9.20;3.92;;;;;;;;;;5004568;28;20042;-60
2021/06/08 10:18:51;;;;;;;11.15;4.68;;;;;;;;;;4997068;28;20125;-59
2021/06/08 10:21:33;;;;;;;10.20;3.67;;;;;;;;;;5004785;28;20121;-59
2021/06/08 10:24:05;;;;;;;9.80;4.40;;;;;;;;;;5002135;28;20479;-60
2021/06/08 10:26:34;;;;;;;10.02;4.10;;;;;;;;;;5002906;28;20589;-60
2021/06/08 10:29:03;;;;;;;8.20;3.58;;;;;;;;;;4998271;28;20053;-60
2021/06/08 10:31:30;;;;;;;8.52;4.43;;;;;;;;;;5002025;28;20045;-60
2021/06/08 10:33:57;;;;;;;6.90;3.78;;;;;;;;;;5003331;28;20053;-59
2021/06/08 10:36:30;;;;;;;9.63;3.83;;;;;;;;;;5004159;28;20040;-60
2021/06/08 10:38:57;;;;;;;5.75;3.72;;;;;;;;;;5006693;28;20045;-59
2021/06/08 10:41:24;;;;;;;7.15;3.92;;;;;;;;;;5004958;28;20044;-59
2021/06/08 10:43:50;;;;;;;5.85;3.63;;;;;;;;;;5003811;28;20040;-60
2021/06/08 10:46:22;;;;;;;7.13;4.10;;;;;;;;;;5008647;28;20131;-60
2021/06/08 10:48:50;;;;;;;8.88;3.83;;;;;;;;;;5004869;28;20340;-60
2021/06/08 10:51:18;;;;;;;6.80;3.90;;;;;;;;;;5005842;28;20128;-60
2021/06/08 10:53:47;;;;;;;12.52;4.28;;;;;;;;;;5004401;28;20100;-60
2021/06/08 10:56:22;;;;;;;10.52;3.78;;;;;;;;;;5006103;28;20104;-60
2021/06/08 10:58:51;;;;;;;6.57;3.58;;;;;;;;;;4996977;28;20038;-60
2021/06/08 11:01:45;;;;;;;8.00;4.28;;;;;;;;;;5002915;28;20050;-60
2021/06/08 11:04:14;;;;;;;9.20;4.10;;;;;;;;;;5004459;28;20041;-60
2021/06/08 11:06:50;;;;;;;6.70;3.25;;;;;;;;;;5009936;28;20057;-59
2021/06/08 11:09:23;;;;;;;12.65;3.78;;;;;;;;;;5000352;28;20046;-59
2021/06/08 11:11:58;;;;;;;9.32;3.88;;;;;;;;;;4998074;28;20483;-60
2021/06/08 11:14:32;;;;;;;6.40;3.88;;;;;;;;;;5003032;28;20145;-60
2021/06/08 11:17:00;;;;;;;9.55;4.18;;;;;;;;;;5002773;28;20077;-60
2021/06/08 11:19:45;;;;;;;9.10;3.55;;;;;;;;;;5001943;28;20037;-60
2021/06/08 11:22:13;;;;;;;7.60;3.90;;;;;;;;;;5005162;28;20048;-60
2021/06/08 11:24:51;;;;;;;12.20;4.15;;;;;;;;;;5005026;28;20042;-60
2021/06/08 11:27:18;;;;;;;8.20;3.72;;;;;;;;;;5005550;28;20034;-60
2021/06/08 11:29:49;;;;;;;10.48;3.97;;;;;;;;;;5002510;28;20050;-60
2021/06/08 11:32:28;;;;;;;6.55;3.58;;;;;;;;;;5005655;28;20132;-60
2021/06/08 11:35:11;;;;;;;6.82;3.80;;;;;;;;;;5003392;28;20050;-60
2021/06/08 11:37:45;;;;;;;6.43;3.58;;;;;;;;;;5008505;28;20095;-60
2021/06/08 11:40:31;;;;;;;7.65;3.97;;;;;;;;;;5007282;28;20041;-60
2021/06/08 11:42:58;;;;;;;6.38;3.70;;;;;;;;;;4998851;28;20077;-60
2021/06/08 11:45:25;;;;;;;7.50;4.07;;;;;;;;;;5003500;28;20048;-60
2021/06/08 11:47:52;;;;;;;8.02;3.72;;;;;;;;;;5000029;28;20111;-60
2021/06/08 11:50:38;;;;;;;10.07;4.30;;;;;;;;;;5001703;28;20383;-60
2021/06/08 11:53:06;;;;;;;12.35;4.07;;;;;;;;;;5007422;28;20064;-60
2021/06/08 11:55:34;;;;;;;10.90;4.10;;;;;;;;;;5006587;28;20049;-60
2021/06/08 11:58:00;;;;;;;;;;;;;;;;;;5006941;28;20057;-60
2021/06/08 12:00:53;;;;;;;10.43;4.00;;;;;;;;;;5006537;28;19921;-60
2021/06/08 12:03:23;;;;;;;8.63;3.80;;;;;;;;;;5004751;28;20530;-60
2021/06/08 12:05:51;;;;;;;8.85;3.75;;;;;;;;;;5000768;28;20433;-59
2021/06/08 12:08:25;;;;;;;7.75;4.10;;;;;;;;;;5003995;28;20058;-60
2021/06/08 12:10:53;;;;;;;8.98;3.72;;;;;;;;;;5006436;28;20046;-60
2021/06/08 12:13:46;;;;;;;6.22;3.78;;;;;;;;;;5005099;28;20494;-60
2021/06/08 12:16:14;;;;;;;9.18;4.22;;;;;;;;;;5004128;28;20053;-60
2021/06/08 12:18:40;;;;;;;10.38;4.07;;;;;;;;;;5001103;28;20046;-60
2021/06/08 12:21:19;;;;;;;15.30;4.45;;;;;;;;;;5002736;28;20070;-60
2021/06/08 12:23:46;;;;;;;7.13;3.30;;;;;;;;;;5004099;28;20444;-60
2021/06/08 12:26:14;;;;;;;7.38;3.90;;;;;;;;;;5002767;28;20121;-60
2021/06/08 12:28:42;;;;;;;8.95;3.83;;;;;;;;;;5006636;28;20391;-60
2021/06/08 12:31:17;;;;;;;8.50;4.10;;;;;;;;;;5000577;28;20048;-60
2021/06/08 12:33:45;;;;;;;7.32;4.20;;;;;;;;;;5003283;28;20100;-60
2021/06/08 12:36:12;;;;;;;;;;;;;;;;;;5002923;28;20038;-60
2021/06/08 12:38:45;;;;;;;7.72;3.90;;;;;;;;;;5005414;28;20064;-59
2021/06/08 12:41:15;;;;;;;6.20;3.80;;;;;;;;;;5005741;28;20046;-59
2021/06/08 12:43:51;;;;;;;10.63;4.43;;;;;;;;;;5006206;28;20046;-59
2021/06/08 12:46:24;;;;;;;8.27;4.22;;;;;;;;;;5006189;28;20049;-59
2021/06/08 12:49:04;;;;;;;11.15;4.20;;;;;;;;;;5001739;28;20053;-60
2021/06/08 12:51:32;;;;;;;8.85;4.18;;;;;;;;;;4999262;28;20042;-59
2021/06/08 12:53:58;;;;;;;8.60;4.38;;;;;;;;;;5003999;28;20509;-59
2021/06/08 12:56:25;;;;;;;9.63;4.60;;;;;;;;;;5001771;28;20042;-59
2021/06/08 12:58:52;;;;;;;9.20;4.15;;;;;;;;;;5005216;28;20038;-59
2021/06/08 13:01:20;;;;;;;8.18;4.47;;;;;;;;;;5004019;28;20516;-59
2021/06/08 13:03:47;;;;;;;5.95;4.30;;;;;;;;;;5005396;28;20046;-59
2021/06/08 13:06:18;;;;;;;11.23;4.60;;;;;;;;;;5001566;28;20054;-59
2021/06/08 13:08:49;;;;;;;11.23;4.47;;;;;;;;;;5003255;28;20042;-59
2021/06/08 13:11:20;;;;;;;11.73;3.88;;;;;;;;;;5000960;28;20039;-59
2021/06/08 13:13:47;;;;;;;7.63;4.10;;;;;;;;;;5003781;28;20070;-59
2021/06/08 13:16:32;;;;;;;11.02;4.00;;;;;;;;;;5001076;28;20514;-59
2021/06/08 13:19:16;;;;;;;7.07;3.92;;;;;;;;;;5002679;28;20034;-59
2021/06/08 13:21:44;;;;;;;9.98;4.50;;;;;;;;;;5004322;28;20564;-60
2021/06/08 13:24:13;;;;;;;9.90;4.63;;;;;;;;;;5003548;28;20041;-59
2021/06/08 13:26:40;;;;;;;11.70;4.85;;;;;;;;;;5004767;28;20046;-59
2021/06/08 13:29:13;;;;;;;11.77;5.28;;;;;;;;;;5002818;28;20041;-59
2021/06/08 13:31:41;;;;;;;12.00;5.18;;;;;;;;;;5003443;28;20074;-59
2021/06/08 13:34:15;;;;;;;14.07;5.53;;;;;;;;;;4997886;28;20054;-60
2021/06/08 13:36:44;;;;;;;14.80;5.47;;;;;;;;;;5005772;28;20088;-59
2021/06/08 13:39:10;;;;;;;;;;;;;;;;;;5001388;28;20038;-60
2021/06/08 13:41:38;;;;;;;11.20;5.53;;;;;;;;;;5001767;28;20426;-59
2021/06/08 13:44:09;;;;;;;16.02;5.45;;;;;;;;;;5002897;28;20074;-60
2021/06/08 13:46:53;;;;;;;9.80;5.05;;;;;;;;;;5005601;28;20058;-60
2021/06/08 13:49:20;;;;;;;13.25;5.63;;;;;;;;;;5004621;28;20066;-60
2021/06/08 13:51:51;;;;;;;14.63;5.50;;;;;;;;;;5004458;28;20052;-59
2021/06/08 13:54:20;;;;;;;12.98;5.60;;;;;;;;;;5002782;28;20081;-60
2021/06/08 13:57:07;;;;;;;11.32;5.22;;;;;;;;;;5007294;28;20048;-60
2021/06/08 14:02:40;;;;;;;15.85;6.07;;;;;;;;;;5001820;28;20457;-60
2021/06/08 14:05:07;;;;;;;10.95;5.40;;;;;;;;;;4998887;28;20485;-59
2021/06/08 14:07:33;;;;;;;13.50;5.78;;;;;;;;;;5006239;28;20433;-59
2021/06/08 14:10:01;;;;;;;;;;;;;;;;;;5006395;28;20470;-59
2021/06/08 14:12:28;;;;;;;16.58;6.03;;;;;;;;;;5006641;28;19928;-59
2021/06/08 14:15:03;;;;;;;17.70;5.90;;;;;;;;;;5005325;28;20120;-60
2021/06/08 14:17:31;;;;;;;16.05;6.05;;;;;;;;;;5021153;28;20060;-59
2021/06/08 14:19:58;;;;;;;14.60;5.03;;;;;;;;;;5005877;28;20125;-60
2021/06/08 14:22:25;;;;;;;14.55;5.28;;;;;;;;;;5009216;28;20096;-60
2021/06/08 14:24:52;;;;;;;18.58;6.00;;;;;;;;;;5003327;28;20489;-59
2021/06/08 14:27:19;;;;;;;12.43;5.63;;;;;;;;;;5005379;28;20053;-59
2021/06/08 14:29:46;;;;;;;16.85;5.63;;;;;;;;;;5008597;28;20046;-59
2021/06/08 14:32:33;;;;;;;24.02;6.45;;;;;;;;;;5008713;28;20061;-60
2021/06/08 14:35:00;;;;;;;18.88;6.15;;;;;;;;;;5005850;28;20601;-60
2021/06/08 14:37:28;;;;;;;16.92;6.25;;;;;;;;;;5006438;28;20033;-59
2021/06/08 14:39:55;;;;;;;13.02;6.05;;;;;;;;;;5004693;28;20073;-60
2021/06/08 14:42:21;;;;;;;13.07;5.53;;;;;;;;;;5004930;28;20061;-59
2021/06/08 14:44:49;;;;;;;14.65;6.15;;;;;;;;;;5003270;28;20046;-59
2021/06/08 14:47:15;;;;;;;18.90;6.20;;;;;;;;;;5005958;28;20058;-59
2021/06/08 14:49:42;;;;;;;12.98;6.30;;;;;;;;;;5001778;28;20041;-59
2021/06/08 14:52:08;;;;;;;15.77;6.10;;;;;;;;;;5008762;28;20096;-59